Time;durP1;ratioP1;P1;durP2;ratioP2;P2;SDS_P1;SDS_P2;PMS_P1;PMS_P2;Temp;Humidity;BMP_temperature;BMP_pressure;BME280_temperature;BME280_humidity;BME280_pressure;Samples;Min_cycle;Max_cycle;Signal;HPM_P1;HPM_P2
2022/09/14 02:46:42;;;;;;;2.00;0.35;;;20.40;86.60;;;;;;5776946;23;88852;-70
2022/09/14 02:49:24;;;;;;;1.55;0.57;;;20.20;88.50;;;;;;4878689;28;86574;-72
2022/09/14 02:52:03;;;;;;;1.63;0.88;;;20.20;88.90;;;;;;4878061;28;86985;-70
2022/09/14 02:54:35;;;;;;;1.73;0.40;;;20.20;88.70;;;;;;4883770;28;86569;-71
2022/09/14 02:57:02;;;;;;;1.83;0.40;;;20.20;88.40;;;;;;4879585;28;88729;-72
2022/09/14 02:59:28;;;;;;;4.05;0.52;;;20.10;88.60;;;;;;4884439;28;87890;-71
2022/09/14 03:01:55;;;;;;;3.25;0.60;;;20.30;86.90;;;;;;4883473;28;86300;-71
2022/09/14 03:04:21;;;;;;;2.63;0.50;;;20.30;87.50;;;;;;4866360;28;86916;-70
2022/09/14 03:06:47;;;;;;;1.40;0.60;;;20.30;86.90;;;;;;4877718;28;87662;-72
2022/09/14 03:09:12;;;;;;;2.40;0.43;;;20.30;86.70;;;;;;4882609;28;86705;-71
2022/09/14 03:11:38;;;;;;;2.65;0.40;;;20.40;84.40;;;;;;4885597;28;86570;-73
2022/09/14 03:14:04;;;;;;;2.53;0.38;;;20.50;83.80;;;;;;4885227;28;85634;-72
2022/09/14 03:16:29;;;;;;;2.80;0.45;;;20.50;84.00;;;;;;4883126;28;86785;-71
2022/09/14 03:18:55;;;;;;;3.47;0.55;;;20.50;83.30;;;;;;4882894;28;86275;-71
2022/09/14 03:21:21;;;;;;;2.70;0.60;;;20.50;83.60;;;;;;4872800;28;87273;-71
2022/09/14 03:23:49;;;;;;;2.22;0.40;;;20.60;83.80;;;;;;4883633;28;86257;-74
2022/09/14 03:26:20;;;;;;;1.35;0.30;;;20.60;82.80;;;;;;4883296;28;87585;-70
2022/09/14 03:28:50;;;;;;;1.65;0.40;;;20.60;82.50;;;;;;4884702;28;86976;-69
2022/09/14 03:31:16;;;;;;;3.80;0.32;;;20.70;80.80;;;;;;4873520;28;86465;-71
2022/09/14 03:33:41;;;;;;;1.02;0.40;;;20.80;80.60;;;;;;4879586;28;86963;-70
2022/09/14 03:36:15;;;;;;;2.42;0.40;;;20.80;80.80;;;;;;4871695;28;87264;-71
2022/09/14 03:38:45;;;;;;;3.30;0.50;;;21.00;78.70;;;;;;4871053;28;87381;-71
2022/09/14 03:41:12;;;;;;;1.83;0.55;;;21.00;80.10;;;;;;4875049;28;87090;-70
2022/09/14 03:43:38;;;;;;;2.97;0.70;;;21.00;80.10;;;;;;4869351;28;87373;-73
2022/09/14 03:46:12;;;;;;;5.43;0.45;;;21.00;81.20;;;;;;4875959;28;90978;-70
2022/09/14 03:48:39;;;;;;;4.97;0.63;;;20.90;81.20;;;;;;4883298;28;87301;-70
2022/09/14 03:51:06;;;;;;;1.17;0.50;;;20.80;82.70;;;;;;4884114;28;86280;-69
2022/09/14 03:53:32;;;;;;;3.67;0.50;;;20.70;82.30;;;;;;4878992;28;86948;-70
2022/09/14 03:55:58;;;;;;;0.93;0.35;;;20.70;83.10;;;;;;4881673;28;87063;-70
2022/09/14 03:58:24;;;;;;;1.60;0.55;;;20.70;83.50;;;;;;4883258;28;86861;-69
2022/09/14 04:00:50;;;;;;;2.67;0.90;;;20.50;85.10;;;;;;4881377;28;87143;-69
2022/09/14 04:03:16;;;;;;;3.10;1.02;;;20.30;87.10;;;;;;4866032;28;86140;-73
2022/09/14 04:05:44;;;;;;;2.50;0.70;;;20.30;87.30;;;;;;4881802;28;88909;-73
2022/09/14 04:08:10;;;;;;;3.20;1.00;;;20.30;87.40;;;;;;4882452;28;87022;-70
2022/09/14 04:10:38;;;;;;;2.58;0.70;;;20.20;87.60;;;;;;4880029;28;87739;-69
2022/09/14 04:13:04;;;;;;;2.97;0.55;;;20.20;87.80;;;;;;4882358;28;86323;-70
2022/09/14 04:15:29;;;;;;;2.30;0.52;;;20.10;87.10;;;;;;4883066;28;87288;-70
2022/09/14 04:17:55;;;;;;;1.70;0.57;;;19.90;88.90;;;;;;4883464;28;87343;-69
2022/09/14 04:20:21;;;;;;;2.20;0.55;;;19.80;90.00;;;;;;4878004;28;86856;-69
2022/09/14 04:22:47;;;;;;;2.03;0.40;;;19.60;91.50;;;;;;4887399;28;86589;-70
2022/09/14 04:25:13;;;;;;;3.75;0.60;;;19.60;91.10;;;;;;4883964;28;87264;-69
2022/09/14 04:27:38;;;;;;;2.83;0.73;;;19.90;90.10;;;;;;4876662;28;87164;-71
2022/09/14 04:30:05;;;;;;;2.05;0.50;;;19.90;88.10;;;;;;4882334;28;86819;-72
2022/09/14 04:32:31;;;;;;;2.25;0.90;;;19.80;88.00;;;;;;4882820;28;86186;-71
2022/09/14 04:34:57;;;;;;;4.65;0.60;;;19.90;87.30;;;;;;4879711;28;87434;-71
2022/09/14 04:37:22;;;;;;;2.63;0.70;;;19.90;87.30;;;;;;4883283;28;87113;-71
2022/09/14 04:39:48;;;;;;;3.60;0.65;;;19.90;87.30;;;;;;4894668;28;87077;-70
2022/09/14 04:42:13;;;;;;;5.22;0.70;;;20.00;86.70;;;;;;4877961;28;86942;-69
2022/09/14 04:44:39;;;;;;;3.88;0.77;;;20.20;86.20;;;;;;4875750;28;87672;-71
2022/09/14 04:47:05;;;;;;;2.58;0.68;;;20.10;86.90;;;;;;4879695;28;86406;-71
2022/09/14 04:49:31;;;;;;;3.00;0.63;;;20.10;87.40;;;;;;4881024;28;86745;-71
2022/09/14 04:51:56;;;;;;;5.53;0.60;;;20.00;87.50;;;;;;4879126;28;85933;-73
2022/09/14 04:54:22;;;;;;;6.75;0.85;;;19.90;88.40;;;;;;4878528;28;86610;-71
2022/09/14 04:56:48;;;;;;;3.38;0.60;;;19.80;88.00;;;;;;4880788;28;86376;-70
2022/09/14 04:59:14;;;;;;;2.70;0.80;;;19.80;88.20;;;;;;4892047;28;87494;-71
2022/09/14 05:01:43;;;;;;;1.85;0.50;;;19.80;88.60;;;;;;4874428;28;86301;-72
2022/09/14 05:04:10;;;;;;;4.22;0.82;;;19.80;88.20;;;;;;4877529;28;86981;-72
2022/09/14 05:06:38;;;;;;;3.03;0.80;;;19.90;88.50;;;;;;4877928;28;87094;-72
2022/09/14 05:09:06;;;;;;;8.20;1.55;;;19.90;87.60;;;;;;4885464;28;86860;-70
2022/09/14 05:11:33;;;;;;;2.78;0.40;;;19.90;87.60;;;;;;4878565;28;86684;-72
2022/09/14 05:13:59;;;;;;;2.35;0.63;;;20.10;86.60;;;;;;4878133;28;87274;-71
2022/09/14 05:16:28;;;;;;;3.63;0.70;;;20.10;85.70;;;;;;4883501;28;86308;-71
2022/09/14 05:19:00;;;;;;;6.43;1.20;;;20.10;85.80;;;;;;4880026;28;86899;-71
2022/09/14 05:21:26;;;;;;;6.85;0.50;;;20.10;86.40;;;;;;4881184;28;87422;-70
2022/09/14 05:23:54;;;;;;;3.58;1.00;;;20.20;86.10;;;;;;4879685;28;88750;-71
2022/09/14 05:26:21;;;;;;;3.83;0.70;;;20.30;84.60;;;;;;4873772;28;87771;-70
2022/09/14 05:28:52;;;;;;;4.93;0.70;;;20.30;84.10;;;;;;4879614;28;86498;-70
2022/09/14 05:31:18;;;;;;;3.15;0.98;;;20.30;85.10;;;;;;4882185;28;86457;-70
2022/09/14 05:33:44;;;;;;;4.82;0.70;;;20.20;85.00;;;;;;4876292;28;87384;-71
2022/09/14 05:36:10;;;;;;;4.28;0.82;;;20.30;83.60;;;;;;4871821;28;86932;-71
2022/09/14 05:38:37;;;;;;;7.18;0.77;;;20.50;84.00;;;;;;4875025;28;86265;-72
2022/09/14 05:41:04;;;;;;;4.43;0.85;;;20.30;85.10;;;;;;4880275;28;86306;-71
2022/09/14 05:43:30;;;;;;;2.58;0.57;;;20.00;87.40;;;;;;4879481;28;87133;-71
2022/09/14 05:46:01;;;;;;;6.55;1.23;;;20.10;86.40;;;;;;4879934;28;87019;-71
2022/09/14 05:48:29;;;;;;;4.47;0.82;;;20.10;87.10;;;;;;4884266;28;87892;-72
2022/09/14 05:51:14;;;;;;;2.35;0.85;;;20.30;86.00;;;;;;4880668;28;86407;-68
2022/09/14 05:53:40;;;;;;;3.03;0.52;;;20.20;86.20;;;;;;4878219;28;87174;-69
2022/09/14 05:56:11;;;;;;;6.38;0.75;;;20.20;87.30;;;;;;4881868;28;86784;-68
2022/09/14 05:58:38;;;;;;;4.97;0.90;;;20.00;88.40;;;;;;4883573;28;86839;-69
2022/09/14 06:01:10;;;;;;;5.18;0.85;;;19.90;89.30;;;;;;4879905;28;86839;-68
2022/09/14 06:03:36;;;;;;;5.07;0.60;;;20.00;89.60;;;;;;4880685;28;87675;-67
2022/09/14 06:06:02;;;;;;;5.35;0.70;;;20.00;88.90;;;;;;4887356;28;86769;-67
2022/09/14 06:08:28;;;;;;;2.65;0.75;;;20.20;88.70;;;;;;4878950;28;87641;-68
2022/09/14 06:10:54;;;;;;;2.78;0.73;;;20.30;88.40;;;;;;4879147;28;86325;-67
2022/09/14 06:13:21;;;;;;;1.60;0.50;;;20.50;87.20;;;;;;4883622;28;87420;-69
2022/09/14 06:15:47;;;;;;;6.88;0.63;;;20.70;86.20;;;;;;4881185;28;87870;-69
2022/09/14 06:18:13;;;;;;;5.60;1.30;;;21.00;83.90;;;;;;4879910;28;86574;-68
2022/09/14 06:20:38;;;;;;;4.72;0.65;;;21.30;83.10;;;;;;4890828;28;86608;-67
2022/09/14 06:23:04;;;;;;;4.03;0.43;;;21.60;81.80;;;;;;4884495;28;87572;-67
2022/09/14 06:25:30;;;;;;;5.95;0.82;;;22.00;81.10;;;;;;4889550;28;87108;-68
2022/09/14 06:27:55;;;;;;;5.43;0.90;;;22.50;78.30;;;;;;4881014;28;87370;-68
2022/09/14 06:30:21;;;;;;;2.00;0.30;;;23.00;76.40;;;;;;4882574;28;85524;-68
2022/09/14 06:32:47;;;;;;;2.90;0.60;;;23.30;74.60;;;;;;4887322;28;86859;-69
2022/09/14 06:35:13;;;;;;;2.35;0.73;;;23.40;73.20;;;;;;4879745;28;86796;-69
2022/09/14 06:37:39;;;;;;;3.55;0.85;;;23.30;73.60;;;;;;4880476;28;87225;-68
2022/09/14 06:40:06;;;;;;;3.28;0.20;;;23.20;73.60;;;;;;4886275;28;86689;-67
2022/09/14 06:42:31;;;;;;;2.35;0.85;;;23.30;73.60;;;;;;4883443;28;86542;-68
2022/09/14 06:44:57;;;;;;;3.13;0.77;;;23.40;73.00;;;;;;4882163;28;86362;-67
2022/09/14 06:47:23;;;;;;;2.45;0.60;;;23.40;72.90;;;;;;4883271;28;87137;-68
2022/09/14 06:49:49;;;;;;;3.25;0.43;;;23.60;73.70;;;;;;4883005;28;86732;-68
2022/09/14 06:52:15;;;;;;;4.72;0.73;;;23.80;73.60;;;;;;4883735;28;87278;-68
2022/09/14 06:54:41;;;;;;;2.50;0.63;;;23.90;72.40;;;;;;4880431;28;86946;-69
2022/09/14 06:57:06;;;;;;;3.28;0.63;;;23.90;72.30;;;;;;4883799;28;86785;-68
2022/09/14 06:59:32;;;;;;;4.68;0.40;;;23.80;72.40;;;;;;4882927;28;86353;-67
2022/09/14 07:01:58;;;;;;;8.15;1.00;;;23.60;72.60;;;;;;4878662;28;88500;-67
2022/09/14 07:04:24;;;;;;;3.65;1.02;;;23.40;73.10;;;;;;4873992;28;87116;-69
2022/09/14 07:06:50;;;;;;;2.28;0.55;;;23.20;72.30;;;;;;4883611;28;87016;-68
2022/09/14 07:09:17;;;;;;;3.33;0.90;;;23.10;72.50;;;;;;4880108;28;87102;-67
2022/09/14 07:11:44;;;;;;;4.32;1.00;;;23.00;74.90;;;;;;4891720;28;86354;-67
2022/09/14 07:14:11;;;;;;;3.63;0.75;;;23.00;72.10;;;;;;4899069;28;86695;-69
2022/09/14 07:16:38;;;;;;;3.45;0.73;;;22.80;72.40;;;;;;4900426;28;87602;-67
2022/09/14 07:19:06;;;;;;;6.85;0.75;;;22.50;73.30;;;;;;4884968;28;86199;-69
2022/09/14 07:21:34;;;;;;;2.97;0.68;;;22.50;74.00;;;;;;4891044;28;87123;-68
2022/09/14 07:24:00;;;;;;;3.63;0.85;;;22.70;73.60;;;;;;4880173;28;86846;-67
2022/09/14 07:26:29;;;;;;;7.75;0.65;;;22.70;74.30;;;;;;4882732;28;87552;-68
2022/09/14 07:29:00;;;;;;;5.63;0.95;;;22.60;74.30;;;;;;4882732;28;86239;-68
2022/09/14 07:31:29;;;;;;;2.95;0.63;;;22.60;75.10;;;;;;4881174;28;87217;-68
2022/09/14 07:33:58;;;;;;;3.70;1.08;;;22.60;74.60;;;;;;4881086;28;86753;-67
2022/09/14 07:36:25;;;;;;;6.32;1.10;;;22.60;75.60;;;;;;4882722;28;86769;-68
2022/09/14 07:38:52;;;;;;;4.22;0.50;;;22.70;75.40;;;;;;4881740;28;86842;-67
2022/09/14 07:41:19;;;;;;;4.03;1.05;;;22.80;76.50;;;;;;4883721;28;87256;-68
2022/09/14 07:43:48;;;;;;;8.10;0.80;;;22.90;76.40;;;;;;4883127;28;86840;-68
2022/09/14 07:46:14;;;;;;;3.95;0.70;;;23.00;76.60;;;;;;4882546;28;86258;-68
2022/09/14 07:48:40;;;;;;;4.47;0.68;;;23.40;75.70;;;;;;4883374;28;86646;-68
2022/09/14 07:51:07;;;;;;;4.82;1.08;;;23.90;75.00;;;;;;4879823;28;87621;-68
2022/09/14 07:53:39;;;;;;;4.75;1.17;;;24.60;73.00;;;;;;4887816;28;87077;-67
2022/09/14 07:56:09;;;;;;;3.63;0.80;;;24.90;72.10;;;;;;4878618;28;86514;-71
2022/09/14 07:58:35;;;;;;;4.03;0.90;;;25.40;71.50;;;;;;4880765;28;86923;-68
2022/09/14 08:01:11;;;;;;;6.45;1.05;;;26.00;70.20;;;;;;4885201;28;86882;-68
2022/09/14 08:03:38;;;;;;;1.95;0.95;;;26.40;67.90;;;;;;4884753;28;87402;-68
2022/09/14 08:06:06;;;;;;;5.28;1.25;;;26.70;65.50;;;;;;4883130;28;86625;-68
2022/09/14 08:08:34;;;;;;;2.90;1.00;;;26.80;65.50;;;;;;4876523;28;85601;-69
2022/09/14 08:11:28;;;;;;;4.90;1.23;;;27.00;65.50;;;;;;4879181;28;87332;-68
2022/09/14 08:13:56;;;;;;;3.75;1.05;;;27.00;66.50;;;;;;4876560;28;87139;-68
2022/09/14 08:16:24;;;;;;;4.40;1.13;;;26.90;63.30;;;;;;4881627;28;88033;-68
2022/09/14 08:18:54;;;;;;;5.28;1.42;;;26.70;65.50;;;;;;4881125;28;86767;-69
2022/09/14 08:21:21;;;;;;;3.67;0.75;;;26.50;65.20;;;;;;4873927;28;86567;-68
2022/09/14 08:23:47;;;;;;;5.40;0.73;;;26.40;65.20;;;;;;4883944;28;87050;-68
2022/09/14 08:26:16;;;;;;;7.95;1.15;;;26.20;65.80;;;;;;4881828;28;86376;-67
2022/09/14 08:28:42;;;;;;;6.10;0.95;;;25.90;66.50;;;;;;4877436;28;86297;-68
2022/09/14 08:31:13;;;;;;;6.88;1.15;;;25.50;67.80;;;;;;4882560;28;87368;-68
2022/09/14 08:33:42;;;;;;;2.75;1.27;;;25.20;69.30;;;;;;4880431;28;86570;-68
2022/09/14 08:36:10;;;;;;;5.30;1.33;;;24.90;70.00;;;;;;4879332;28;86666;-69
2022/09/14 08:38:36;;;;;;;4.80;1.00;;;24.70;70.30;;;;;;4876422;28;86334;-67
2022/09/14 08:41:18;;;;;;;5.20;1.10;;;24.60;71.30;;;;;;4884249;28;88225;-68
2022/09/14 08:43:44;;;;;;;2.65;0.98;;;24.60;71.50;;;;;;4877126;28;87252;-68
2022/09/14 08:46:33;;;;;;;2.92;0.85;;;24.70;71.50;;;;;;4881591;28;86333;-69
2022/09/14 08:49:01;;;;;;;3.10;1.10;;;24.90;70.40;;;;;;4881544;28;87201;-68
2022/09/14 08:51:27;;;;;;;8.07;0.68;;;24.90;69.60;;;;;;4880984;28;87266;-68
2022/09/14 08:53:55;;;;;;;3.08;0.90;;;25.20;70.00;;;;;;4881239;28;87151;-68
2022/09/14 08:56:25;;;;;;;5.63;1.05;;;25.70;67.90;;;;;;4881824;28;86509;-68
2022/09/14 08:59:17;;;;;;;7.97;1.23;;;25.90;68.80;;;;;;4876660;28;86213;-68
2022/09/14 09:01:50;;;;;;;4.40;1.05;;;26.10;67.40;;;;;;4863171;28;87335;-68
2022/09/14 09:04:21;;;;;;;3.80;1.20;;;26.20;67.30;;;;;;4881607;28;86897;-67
2022/09/14 09:06:47;;;;;;;3.85;1.35;;;26.30;65.70;;;;;;4881030;28;87271;-68
2022/09/14 09:09:44;;;;;;;7.13;1.33;;;26.10;67.60;;;;;;4881466;28;86788;-68
2022/09/14 09:12:15;;;;;;;6.43;1.30;;;26.10;67.00;;;;;;4877668;28;87450;-68
2022/09/14 09:15:04;;;;;;;6.45;1.55;;;25.70;67.50;;;;;;4877715;28;87245;-68
2022/09/14 09:17:37;;;;;;;6.00;1.00;;;25.30;68.40;;;;;;4870923;28;86387;-68
2022/09/14 09:20:22;;;;;;;2.92;0.43;;;25.30;68.90;;;;;;4876144;28;88504;-67
2022/09/14 09:23:15;;;;;;;4.10;1.45;;;25.70;67.70;;;;;;4874889;28;88490;-69
2022/09/14 09:25:57;;;;;;;4.57;0.98;;;25.90;65.70;;;;;;4873708;28;86170;-68
2022/09/14 09:28:24;;;;;;;3.17;0.65;;;25.20;68.00;;;;;;4878382;28;86297;-68
2022/09/14 09:30:51;;;;;;;5.43;1.05;;;25.70;67.40;;;;;;4879985;28;86948;-69
2022/09/14 09:33:22;;;;;;;4.60;1.20;;;25.50;67.00;;;;;;4875371;28;88265;-68
2022/09/14 09:35:52;;;;;;;5.88;1.00;;;25.20;67.40;;;;;;4879806;28;88396;-67
2022/09/14 09:38:23;;;;;;;7.68;1.27;;;25.60;67.80;;;;;;4879682;28;86697;-68
2022/09/14 09:41:22;;;;;;;4.18;0.82;;;26.20;66.00;;;;;;4879609;28;86528;-69
2022/09/14 09:44:01;;;;;;;6.70;1.25;;;26.80;65.90;;;;;;4880668;28;86817;-68
2022/09/14 09:46:33;;;;;;;10.98;1.77;;;27.60;64.60;;;;;;4879532;28;86870;-69
2022/09/14 09:49:03;;;;;;;3.58;1.40;;;27.80;61.00;;;;;;4880933;28;86316;-68
2022/09/14 09:51:31;;;;;;;6.60;1.50;;;27.60;61.50;;;;;;4876738;28;87504;-68
2022/09/14 09:54:12;;;;;;;4.82;1.20;;;28.60;61.60;;;;;;4880491;28;86972;-68
2022/09/14 09:56:52;;;;;;;5.93;1.65;;;29.60;59.50;;;;;;4885353;28;86511;-68
2022/09/14 09:59:27;;;;;;;4.68;1.80;;;30.00;59.10;;;;;;4883921;28;87157;-68
2022/09/14 10:01:55;;;;;;;4.40;1.33;;;29.70;57.60;;;;;;4878664;28;86449;-68
2022/09/14 10:04:26;;;;;;;5.30;1.90;;;30.40;57.70;;;;;;4881841;28;87058;-68
2022/09/14 10:06:53;;;;;;;5.60;1.73;;;31.30;55.10;;;;;;4882596;28;86735;-68
2022/09/14 10:09:26;;;;;;;8.25;2.38;;;32.70;53.20;;;;;;4883966;28;86353;-69
2022/09/14 10:11:58;;;;;;;6.18;2.42;;;34.00;49.90;;;;;;4882021;28;87490;-69
2022/09/14 10:14:36;;;;;;;6.80;2.55;;;34.30;50.40;;;;;;4883565;28;86574;-67
2022/09/14 10:17:18;;;;;;;5.95;2.22;;;36.40;46.70;;;;;;4885411;28;85897;-68
2022/09/14 10:19:48;;;;;;;5.55;2.17;;;37.80;45.50;;;;;;4876561;28;87106;-69
2022/09/14 10:22:30;;;;;;;4.57;3.15;;;36.20;45.50;;;;;;4883867;28;86904;-69
2022/09/14 10:25:00;;;;;;;7.15;2.35;;;34.20;48.90;;;;;;4874388;28;87874;-68
2022/09/14 10:27:40;;;;;;;3.80;2.22;;;33.40;48.90;;;;;;4881909;28;87911;-68
2022/09/14 10:30:24;;;;;;;6.22;2.17;;;32.90;50.30;;;;;;4881641;28;86327;-68
2022/09/14 10:32:59;;;;;;;7.57;2.40;;;32.70;52.60;;;;;;4877826;28;86276;-68
2022/09/14 10:35:38;;;;;;;6.57;1.85;;;32.40;52.30;;;;;;4882691;28;86645;-68
2022/09/14 10:38:25;;;;;;;4.00;1.83;;;31.70;53.70;;;;;;4879481;28;86322;-70
2022/09/14 10:41:17;;;;;;;5.20;1.75;;;31.30;54.80;;;;;;4883155;28;86377;-69
2022/09/14 10:43:55;;;;;;;6.55;1.70;;;31.20;54.60;;;;;;4877637;28;86146;-68
2022/09/14 10:46:29;;;;;;;4.88;1.20;;;31.10;54.60;;;;;;4876476;28;88798;-69
2022/09/14 10:49:42;;;;;;;3.65;1.98;;;31.20;54.10;;;;;;4886915;28;88547;-68
2022/09/14 10:52:25;;;;;;;6.18;1.65;;;30.90;54.40;;;;;;4846714;28;87739;-68
2022/09/14 10:55:12;;;;;;;4.75;2.45;;;30.40;55.20;;;;;;4884655;28;87079;-68
2022/09/14 10:57:43;;;;;;;5.95;1.65;;;30.20;56.20;;;;;;4881636;28;86807;-67
2022/09/14 11:00:17;;;;;;;6.93;2.20;;;29.80;57.20;;;;;;4883822;28;86207;-69
2022/09/14 11:03:07;;;;;;;3.40;1.42;;;29.90;56.70;;;;;;4883143;28;87180;-69
2022/09/14 11:05:43;;;;;;;5.10;1.48;;;29.90;58.20;;;;;;4886214;28;86346;-68
2022/09/14 11:08:25;;;;;;;4.45;1.90;;;29.80;57.20;;;;;;4880912;28;87245;-68
2022/09/14 11:11:28;;;;;;;8.38;1.83;;;29.50;59.00;;;;;;4882192;28;88283;-69
2022/09/14 11:14:06;;;;;;;4.43;1.83;;;29.20;59.70;;;;;;4880008;28;87522;-68
2022/09/14 11:16:50;;;;;;;4.22;1.70;;;29.10;58.60;;;;;;4883201;28;86660;-68
2022/09/14 11:19:36;;;;;;;4.93;1.45;;;28.90;59.70;;;;;;4883028;28;88265;-69
2022/09/14 11:22:05;;;;;;;6.03;1.45;;;28.60;59.20;;;;;;4875131;28;87870;-69
2022/09/14 11:24:48;;;;;;;5.07;1.20;;;28.30;60.20;;;;;;4876903;28;86353;-75
2022/09/14 11:27:46;;;;;;;6.38;1.30;;;27.80;62.20;;;;;;4873333;28;86979;-69
2022/09/14 11:30:18;;;;;;;6.35;0.82;;;27.50;64.80;;;;;;4873973;28;87299;-70
2022/09/14 11:32:55;;;;;;;9.32;1.15;;;27.40;62.90;;;;;;4870390;28;87006;-70
2022/09/14 11:35:44;;;;;;;9.18;1.67;;;27.40;63.00;;;;;;4875141;28;86791;-70
2022/09/14 11:38:19;;;;;;;8.73;1.67;;;27.10;63.10;;;;;;4874494;28;85570;-70
2022/09/14 11:40:58;;;;;;;7.03;1.50;;;26.50;66.30;;;;;;4868170;28;88668;-70
2022/09/14 11:43:26;;;;;;;4.80;1.58;;;26.20;66.30;;;;;;4867276;28;86369;-73
2022/09/14 11:46:14;;;;;;;4.65;1.63;;;26.10;67.10;;;;;;4881207;28;88097;-71
2022/09/14 11:49:07;;;;;;;5.40;1.88;;;26.10;67.50;;;;;;4877110;28;87493;-71
2022/09/14 11:51:45;;;;;;;5.53;1.52;;;26.10;69.00;;;;;;4855745;28;87220;-73
2022/09/14 11:54:18;;;;;;;6.78;1.90;;;26.20;67.20;;;;;;4873438;28;87016;-71
2022/09/14 11:56:48;;;;;;;5.88;1.42;;;26.30;67.30;;;;;;4872803;28;86700;-70
2022/09/14 11:59:34;;;;;;;5.03;2.00;;;26.40;68.80;;;;;;4870188;28;87006;-72
2022/09/14 12:02:41;;;;;;;4.25;1.58;;;26.80;67.10;;;;;;4871068;28;88190;-71
2022/09/14 12:05:07;;;;;;;6.55;1.30;;;27.10;65.80;;;;;;4865474;28;88603;-71
2022/09/14 12:07:38;;;;;;;5.47;1.58;;;27.30;65.90;;;;;;4872832;28;87024;-69
2022/09/14 12:10:14;;;;;;;2.88;0.70;;;27.60;64.30;;;;;;4874802;28;86318;-70
2022/09/14 12:12:42;;;;;;;4.22;1.45;;;27.60;64.90;;;;;;4876899;28;88449;-72
2022/09/14 12:15:25;;;;;;;4.95;1.67;;;27.50;64.70;;;;;;4865787;28;87599;-70
2022/09/14 12:18:12;;;;;;;4.20;1.27;;;27.50;65.00;;;;;;4877261;28;87070;-70
2022/09/14 12:20:43;;;;;;;6.70;1.85;;;27.40;65.40;;;;;;4872445;28;86697;-72
2022/09/14 12:23:40;;;;;;;7.10;1.40;;;27.10;66.50;;;;;;4875513;28;87415;-69
2022/09/14 12:26:09;;;;;;;5.60;1.73;;;26.90;66.40;;;;;;4868291;28;86301;-71
2022/09/14 12:28:37;;;;;;;5.65;1.77;;;26.60;67.70;;;;;;4871902;28;86926;-72
2022/09/14 12:31:03;;;;;;;5.15;1.65;;;26.30;69.50;;;;;;4868297;28;86032;-70
2022/09/14 12:33:32;;;;;;;5.88;2.03;;;26.10;70.00;;;;;;4865956;28;87281;-69
2022/09/14 12:36:01;;;;;;;4.20;1.70;;;25.70;72.00;;;;;;4864469;28;86347;-68
2022/09/14 12:38:30;;;;;;;3.53;1.67;;;25.50;71.80;;;;;;4871376;28;88091;-70
2022/09/14 12:41:01;;;;;;;4.68;1.65;;;25.40;72.50;;;;;;4872454;28;86319;-69
2022/09/14 12:43:33;;;;;;;4.53;1.38;;;25.30;73.20;;;;;;4873368;28;87019;-73
2022/09/14 12:46:06;;;;;;;5.20;1.60;;;25.20;73.30;;;;;;4873443;28;87293;-70
2022/09/14 12:48:47;;;;;;;5.10;2.00;;;25.10;74.60;;;;;;4874447;28;87066;-70
2022/09/14 12:51:29;;;;;;;7.50;1.80;;;25.20;73.90;;;;;;4872871;28;86443;-70
2022/09/14 12:54:00;;;;;;;7.47;1.70;;;25.20;73.40;;;;;;4875410;28;87595;-71
2022/09/14 12:56:35;;;;;;;5.43;1.67;;;25.20;73.80;;;;;;4874144;28;86858;-73
2022/09/14 12:59:32;;;;;;;7.25;1.00;;;25.30;73.30;;;;;;4872180;28;87027;-72
2022/09/14 13:02:24;;;;;;;3.95;1.33;;;25.20;73.80;;;;;;4880288;28;87144;-70
2022/09/14 13:04:55;;;;;;;5.85;1.88;;;25.10;74.20;;;;;;4880485;28;88265;-71
2022/09/14 13:07:24;;;;;;;8.13;1.42;;;25.20;73.50;;;;;;4881977;28;88911;-72
2022/09/14 13:09:51;;;;;;;;;;;25.10;73.40;;;;;;4871608;28;86313;-71
2022/09/14 13:12:32;;;;;;;4.72;1.55;;;25.00;74.70;;;;;;4881712;28;86770;-70
2022/09/14 13:15:03;;;;;;;5.32;1.00;;;24.90;75.50;;;;;;4875575;28;88134;-70
2022/09/14 13:17:29;;;;;;;6.45;1.20;;;24.70;77.20;;;;;;4877881;28;90885;-72
2022/09/14 13:19:58;;;;;;;5.45;1.67;;;24.60;77.80;;;;;;4879800;28;86309;-71
2022/09/14 13:22:30;;;;;;;12.13;1.33;;;24.40;78.60;;;;;;4878114;28;86586;-72
2022/09/14 13:24:57;;;;;;;6.93;1.33;;;24.10;80.10;;;;;;4877627;28;86671;-74
2022/09/14 13:27:32;;;;;;;6.00;1.60;;;24.00;79.30;;;;;;4880019;28;86394;-71
2022/09/14 13:30:10;;;;;;;5.10;1.13;;;24.00;79.90;;;;;;4879240;28;88073;-71
2022/09/14 13:32:42;;;;;;;4.35;1.33;;;23.70;77.60;;;;;;4876132;28;86621;-71
2022/09/14 13:35:17;;;;;;;3.72;1.20;;;23.70;77.70;;;;;;4881310;28;86880;-70
2022/09/14 13:37:44;;;;;;;3.80;1.02;;;23.70;77.50;;;;;;4879483;28;86641;-71
2022/09/14 13:40:11;;;;;;;5.55;1.10;;;23.70;77.90;;;;;;4879210;28;87160;-70
2022/09/14 13:42:38;;;;;;;3.13;0.90;;;23.50;78.30;;;;;;4878880;28;86538;-71
2022/09/14 13:45:04;;;;;;;4.50;1.17;;;23.40;78.10;;;;;;4881618;28;87699;-72
2022/09/14 13:47:30;;;;;;;4.88;1.02;;;23.40;80.00;;;;;;4877212;28;86686;-71
2022/09/14 13:49:57;;;;;;;4.90;1.10;;;23.70;80.20;;;;;;4880688;28;87239;-70
2022/09/14 13:52:22;;;;;;;5.10;1.10;;;24.00;79.40;;;;;;4883257;28;86762;-71
2022/09/14 13:55:07;;;;;;;3.33;0.80;;;24.60;77.10;;;;;;4882770;28;87845;-71
2022/09/14 13:57:33;;;;;;;3.60;1.02;;;25.00;75.60;;;;;;4878681;28;87792;-70
2022/09/14 14:00:16;;;;;;;5.40;0.82;;;25.30;75.30;;;;;;4871361;28;86662;-72
2022/09/14 14:02:46;;;;;;;4.80;1.15;;;25.30;73.40;;;;;;4879660;28;86807;-70
2022/09/14 14:05:33;;;;;;;2.42;0.85;;;25.40;72.60;;;;;;4879811;28;86740;-71
2022/09/14 14:08:03;;;;;;;3.67;1.33;;;25.60;72.30;;;;;;4883457;28;90006;-71
2022/09/14 14:10:36;;;;;;;3.88;0.73;;;25.50;69.40;;;;;;4882146;28;86669;-72
2022/09/14 14:13:02;;;;;;;3.13;0.77;;;25.20;70.20;;;;;;4875963;28;85966;-70
2022/09/14 14:15:38;;;;;;;2.63;1.27;;;24.90;70.80;;;;;;4871226;28;86682;-71
2022/09/14 14:18:30;;;;;;;2.97;1.05;;;25.00;72.70;;;;;;4873343;28;87695;-70
2022/09/14 14:21:05;;;;;;;6.22;1.73;;;24.70;74.30;;;;;;4880775;28;87113;-71
2022/09/14 14:23:31;;;;;;;6.18;1.10;;;24.90;73.40;;;;;;4875419;28;86469;-70
2022/09/14 14:26:13;;;;;;;5.55;1.60;;;25.10;74.10;;;;;;4875158;28;87311;-72
2022/09/14 14:28:40;;;;;;;3.50;1.17;;;25.30;71.30;;;;;;4873783;28;87009;-71
2022/09/14 14:31:12;;;;;;;5.32;1.20;;;24.90;72.90;;;;;;4872759;28;86954;-71
2022/09/14 14:33:47;;;;;;;4.93;1.08;;;24.70;74.20;;;;;;4869827;28;86599;-72
2022/09/14 14:36:13;;;;;;;8.98;1.40;;;24.60;74.10;;;;;;4873058;28;86535;-72
2022/09/14 14:38:41;;;;;;;6.00;1.38;;;24.30;75.40;;;;;;4872157;28;86160;-72
2022/09/14 14:41:16;;;;;;;4.07;1.10;;;24.10;77.20;;;;;;4874321;28;86693;-70
2022/09/14 14:43:45;;;;;;;7.00;1.30;;;24.20;76.10;;;;;;4875152;28;86904;-73
2022/09/14 14:46:11;;;;;;;4.70;0.98;;;24.30;76.80;;;;;;4881648;28;88225;-72
2022/09/14 14:48:37;;;;;;;8.93;1.35;;;24.00;77.70;;;;;;4879986;28;87904;-71
2022/09/14 14:51:04;;;;;;;5.80;1.40;;;23.90;80.10;;;;;;4878790;28;86271;-70
2022/09/14 14:53:29;;;;;;;7.85;2.05;;;23.60;80.80;;;;;;4879279;28;86611;-71
2022/09/14 14:55:55;;;;;;;7.45;1.27;;;23.40;81.00;;;;;;4885148;28;87844;-70
2022/09/14 14:58:22;;;;;;;6.63;1.55;;;23.50;80.30;;;;;;4882453;28;86344;-71
2022/09/14 15:00:48;;;;;;;6.03;1.15;;;23.40;81.60;;;;;;4871888;28;86943;-72
2022/09/14 15:03:14;;;;;;;2.88;0.90;;;23.60;80.60;;;;;;4876388;28;86208;-71
2022/09/14 15:05:42;;;;;;;4.20;0.90;;;23.40;81.00;;;;;;4875418;28;86605;-70
2022/09/14 15:08:13;;;;;;;2.05;0.95;;;23.10;80.80;;;;;;4875151;28;86881;-71
2022/09/14 15:10:39;;;;;;;5.93;1.40;;;23.20;80.30;;;;;;4873810;28;87723;-70
2022/09/14 15:13:06;;;;;;;5.78;1.40;;;23.40;80.00;;;;;;4879104;28;87373;-71
2022/09/14 15:15:32;;;;;;;5.70;1.83;;;23.20;81.10;;;;;;4882858;28;86991;-70
2022/09/14 15:17:58;;;;;;;7.68;1.25;;;23.00;81.30;;;;;;4873232;28;86751;-72
2022/09/14 15:20:25;;;;;;;4.35;0.93;;;23.00;81.20;;;;;;4867932;28;86894;-71
2022/09/14 15:22:51;;;;;;;5.88;0.90;;;23.00;81.70;;;;;;4873629;28;86670;-72
2022/09/14 15:25:19;;;;;;;6.80;1.13;;;23.40;79.70;;;;;;4883067;28;86615;-72
2022/09/14 15:27:45;;;;;;;6.40;0.70;;;23.60;78.50;;;;;;4879467;28;86436;-70
2022/09/14 15:30:12;;;;;;;2.90;0.88;;;23.50;78.80;;;;;;4878551;28;86319;-72
2022/09/14 15:32:38;;;;;;;7.15;0.80;;;23.30;79.50;;;;;;4879689;28;86463;-70
2022/09/14 15:35:06;;;;;;;4.82;1.02;;;23.10;79.80;;;;;;4883262;28;87514;-70
2022/09/14 15:37:31;;;;;;;4.63;0.30;;;23.30;77.60;;;;;;4883492;28;90293;-71
2022/09/14 15:39:57;;;;;;;3.30;1.13;;;23.40;78.00;;;;;;4883627;28;87027;-71
2022/09/14 15:42:24;;;;;;;10.90;1.15;;;23.50;77.10;;;;;;4876806;28;87039;-71
2022/09/14 15:44:50;;;;;;;3.10;0.80;;;23.20;78.40;;;;;;4879958;28;86944;-72
2022/09/14 15:47:16;;;;;;;4.68;1.27;;;23.00;79.50;;;;;;4879990;28;87174;-71
2022/09/14 15:49:42;;;;;;;5.43;1.00;;;23.10;79.00;;;;;;4880125;28;86972;-71
2022/09/14 15:52:10;;;;;;;3.08;0.82;;;23.20;79.10;;;;;;4882400;28;85618;-71
2022/09/14 15:54:37;;;;;;;3.58;0.90;;;23.10;80.80;;;;;;4882923;28;87222;-71